createdAt,value
2022-08-16T00:01:34.205Z,6.53
2022-08-16T00:04:05.383Z,5.27
2022-08-16T00:06:33.817Z,5.53
2022-08-16T00:09:04.950Z,3.97
2022-08-16T00:11:35.316Z,4.87
2022-08-16T00:14:08.647Z,5.27
2022-08-16T00:17:01.606Z,6.07
2022-08-16T00:19:28.225Z,5.17
2022-08-16T00:22:01.613Z,4.47
2022-08-16T00:24:32.626Z,5.50
2022-08-16T00:27:03.524Z,5.37
2022-08-16T00:29:31.898Z,6.40
2022-08-16T00:32:05.550Z,5.00
2022-08-16T00:34:43.151Z,4.77
2022-08-16T00:37:17.130Z,5.07
2022-08-16T00:39:47.423Z,5.37
2022-08-16T00:42:30.054Z,5.57
2022-08-16T00:45:08.137Z,5.07
2022-08-16T00:47:38.700Z,5.50
2022-08-16T00:50:08.163Z,4.97
2022-08-16T00:52:50.285Z,5.70
2022-08-16T00:55:19.224Z,5.73
2022-08-16T00:57:59.015Z,4.13
2022-08-16T01:00:29.582Z,5.90
2022-08-16T01:02:58.343Z,5.67
2022-08-16T01:05:27.482Z,4.83
2022-08-16T01:07:57.396Z,4.87
2022-08-16T01:10:32.574Z,5.03
2022-08-16T01:13:05.595Z,5.00
2022-08-16T01:15:34.591Z,5.20
2022-08-16T01:18:04.355Z,6.03
2022-08-16T01:20:34.253Z,6.67
2022-08-16T01:23:08.899Z,4.90
2022-08-16T01:25:41.876Z,5.73
2022-08-16T01:28:20.112Z,5.77
2022-08-16T01:30:50.833Z,4.90
2022-08-16T01:33:20.445Z,4.73
2022-08-16T01:35:57.532Z,5.17
2022-08-16T01:38:28.565Z,5.73
2022-08-16T01:41:02.327Z,5.60
2022-08-16T01:43:32.823Z,5.67
2022-08-16T01:46:37.860Z,5.43
2022-08-16T01:48:52.118Z,5.73
2022-08-16T01:51:21.312Z,5.60
2022-08-16T01:53:54.550Z,5.17
2022-08-16T01:56:25.820Z,5.60
2022-08-16T01:58:55.689Z,5.73
2022-08-16T02:01:25.931Z,4.73
2022-08-16T02:03:58.659Z,4.37
2022-08-16T02:06:40.359Z,5.17
2022-08-16T02:09:14.881Z,4.93
2022-08-16T02:11:53.249Z,4.30
2022-08-16T02:14:22.335Z,5.20
2022-08-16T02:16:51.019Z,5.50
2022-08-16T02:19:21.317Z,6.00
2022-08-16T02:22:08.493Z,5.63
2022-08-16T02:24:42.306Z,5.90
2022-08-16T02:27:15.776Z,5.00
2022-08-16T02:29:44.938Z,4.53
2022-08-16T02:32:51.234Z,5.80
2022-08-16T02:35:03.404Z,4.97
2022-08-16T02:37:39.832Z,5.17
2022-08-16T02:40:19.961Z,5.83
2022-08-16T02:42:51.177Z,4.90
2022-08-16T02:45:20.263Z,5.30
2022-08-16T02:48:00.536Z,6.80
2022-08-16T02:50:55.529Z,5.57
2022-08-16T02:53:29.878Z,5.03
2022-08-16T02:55:58.950Z,6.37
2022-08-16T02:58:29.236Z,5.63
2022-08-16T03:00:58.958Z,5.20
2022-08-16T03:04:39.375Z,6.07
2022-08-16T03:06:42.241Z,6.77
2022-08-16T03:09:13.547Z,5.90
2022-08-16T03:11:42.948Z,5.90
2022-08-16T03:14:13.146Z,5.70
2022-08-16T03:16:58.817Z,5.53
2022-08-16T03:19:48.357Z,5.30
2022-08-16T03:22:19.458Z,5.43
2022-08-16T03:24:57.957Z,5.67
2022-08-16T03:27:30.541Z,5.53
2022-08-16T03:30:01.325Z,5.17
2022-08-16T03:32:30.295Z,5.17
2022-08-16T03:34:58.530Z,5.50
2022-08-16T03:37:26.957Z,5.37
2022-08-16T03:40:02.891Z,5.60
2022-08-16T03:42:31.603Z,5.13
2022-08-16T03:45:03.504Z,5.37
2022-08-16T03:47:34.062Z,6.10
2022-08-16T03:50:02.979Z,5.13
2022-08-16T03:52:31.912Z,5.23
2022-08-16T03:55:00.903Z,5.00
2022-08-16T03:57:31.425Z,5.63
2022-08-16T04:00:01.828Z,5.53
2022-08-16T04:02:34.034Z,6.03
2022-08-16T04:05:02.260Z,6.03
2022-08-16T04:07:33.439Z,5.57
2022-08-16T04:10:36.088Z,5.60
2022-08-16T04:12:53.532Z,5.67
2022-08-16T04:15:25.909Z,6.50
2022-08-16T04:17:54.897Z,6.50
2022-08-16T04:20:31.150Z,5.73
2022-08-16T04:23:02.629Z,6.67
2022-08-16T04:25:30.945Z,5.87
2022-08-16T04:28:51.622Z,6.37
2022-08-16T04:30:50.431Z,6.20
2022-08-16T04:33:18.946Z,5.70
2022-08-16T04:35:55.997Z,6.63
2022-08-16T04:38:25.542Z,6.50
2022-08-16T04:40:54.327Z,5.63
2022-08-16T04:43:23.657Z,6.23
2022-08-16T04:46:00.298Z,5.90
2022-08-16T04:48:34.036Z,5.67
2022-08-16T04:51:11.738Z,5.60
2022-08-16T04:53:41.410Z,6.53
2022-08-16T04:56:11.505Z,6.03
2022-08-16T04:58:46.150Z,6.07
2022-08-16T05:01:17.664Z,6.13
2022-08-16T05:04:01.011Z,5.87
2022-08-16T05:06:44.780Z,5.67
2022-08-16T05:09:14.284Z,5.80
2022-08-16T05:11:45.038Z,6.53
2022-08-16T05:14:20.226Z,6.10
2022-08-16T05:17:03.182Z,6.10
2022-08-16T05:19:36.113Z,5.67
2022-08-16T05:22:05.062Z,6.50
2022-08-16T05:24:33.694Z,6.30
2022-08-16T05:27:11.559Z,6.50
2022-08-16T05:29:57.758Z,6.87
2022-08-16T05:32:32.338Z,6.90
2022-08-16T05:35:02.826Z,7.03
2022-08-16T05:37:39.722Z,7.77
2022-08-16T05:40:09.341Z,7.20
2022-08-16T05:42:47.635Z,7.90
2022-08-16T05:45:21.435Z,7.40
2022-08-16T05:47:59.809Z,6.80
2022-08-16T05:50:33.845Z,7.77
2022-08-16T05:53:02.855Z,8.23
2022-08-16T05:55:31.181Z,9.13
2022-08-16T05:58:03.805Z,9.80
2022-08-16T06:00:33.542Z,8.33
2022-08-16T06:03:04.502Z,8.97
2022-08-16T06:05:42.150Z,7.93
2022-08-16T06:08:10.466Z,9.07
2022-08-16T06:11:02.845Z,7.97
2022-08-16T06:13:42.322Z,7.67
2022-08-16T06:16:18.262Z,6.90
2022-08-16T06:18:48.418Z,7.90
2022-08-16T06:21:22.855Z,7.63
2022-08-16T06:23:54.123Z,7.03
2022-08-16T06:26:22.917Z,8.30
2022-08-16T06:28:52.554Z,8.70
2022-08-16T06:31:25.033Z,8.10
2022-08-16T06:33:54.897Z,7.43
2022-08-16T06:36:24.013Z,8.20
2022-08-16T06:38:56.642Z,7.73
2022-08-16T06:41:27.507Z,7.33
2022-08-16T06:43:56.499Z,7.10
2022-08-16T06:46:32.076Z,9.17
2022-08-16T06:49:02.332Z,7.57
2022-08-16T06:51:45.715Z,6.73
2022-08-16T06:54:16.508Z,7.97
2022-08-16T06:56:44.863Z,6.90
2022-08-16T06:59:14.409Z,7.33
2022-08-16T07:01:54.578Z,7.00
2022-08-16T07:04:28.167Z,7.20
2022-08-16T07:07:01.915Z,6.73
2022-08-16T07:09:31.433Z,7.47
2022-08-16T07:12:03.200Z,8.57
2022-08-16T07:14:32.389Z,7.80
2022-08-16T07:17:01.015Z,8.35
2022-08-16T07:19:33.663Z,8.50
2022-08-16T07:22:36.713Z,7.10
2022-08-16T07:25:08.317Z,7.43
2022-08-16T07:27:38.280Z,7.80
2022-08-16T07:30:39.271Z,8.27
2022-08-16T07:32:56.984Z,7.77
2022-08-16T07:35:27.121Z,8.80
2022-08-16T07:37:55.408Z,6.83
2022-08-16T07:40:42.607Z,7.47
2022-08-16T07:43:12.321Z,7.70
2022-08-16T07:45:43.103Z,7.77
2022-08-16T07:48:12.347Z,6.83
2022-08-16T07:50:55.545Z,7.90
2022-08-16T07:53:28.817Z,7.27
2022-08-16T07:55:57.647Z,5.73
2022-08-16T07:58:33.690Z,6.40
2022-08-16T08:01:10.041Z,6.90
2022-08-16T08:03:41.524Z,7.60
2022-08-16T08:06:13.545Z,8.03
2022-08-16T08:08:50.724Z,6.90
2022-08-16T08:11:21.514Z,7.23
2022-08-16T08:13:50.730Z,7.40
2022-08-16T08:16:19.943Z,7.30
2022-08-16T08:18:50.777Z,7.40
2022-08-16T08:21:27.396Z,6.97
2022-08-16T08:23:57.671Z,7.47
2022-08-16T08:26:26.248Z,5.90
2022-08-16T08:29:00.719Z,7.80
2022-08-16T08:31:29.794Z,6.37
2022-08-16T08:33:59.731Z,7.47
2022-08-16T08:36:33.148Z,7.10
2022-08-16T08:39:02.652Z,8.67
2022-08-16T08:41:41.578Z,7.73
2022-08-16T08:44:28.595Z,8.27
2022-08-16T08:46:59.759Z,7.37
2022-08-16T08:49:54.915Z,6.77
2022-08-16T08:52:35.510Z,7.30
2022-08-16T08:55:09.453Z,7.60
2022-08-16T08:57:40.739Z,7.40
2022-08-16T09:00:13.784Z,6.17
2022-08-16T09:02:44.404Z,5.10
2022-08-16T09:05:15.729Z,7.87
2022-08-16T09:07:54.665Z,6.80
2022-08-16T09:10:30.277Z,7.20
2022-08-16T09:12:58.525Z,7.10
2022-08-16T09:15:33.076Z,7.70
2022-08-16T09:18:25.218Z,7.20
2022-08-16T09:20:58.531Z,6.67
2022-08-16T09:23:31.301Z,7.17
2022-08-16T09:26:44.844Z,5.80
2022-08-16T09:29:15.408Z,5.83
2022-08-16T09:31:42.374Z,6.33
2022-08-16T09:34:11.196Z,6.60
2022-08-16T09:36:46.218Z,7.00
2022-08-16T09:39:17.957Z,7.20
2022-08-16T09:41:53.946Z,6.87
2022-08-16T09:45:12.534Z,6.60
2022-08-16T09:47:12.753Z,6.03
2022-08-16T09:49:41.423Z,5.73
2022-08-16T09:52:10.625Z,6.17
2022-08-16T09:54:44.262Z,6.00
2022-08-16T09:57:13.174Z,6.00
2022-08-16T09:59:42.030Z,5.77
2022-08-16T10:02:26.261Z,6.90
2022-08-16T10:04:55.385Z,5.97
2022-08-16T10:07:23.781Z,6.57
2022-08-16T10:09:56.085Z,6.10
2022-08-16T10:12:43.301Z,5.10
2022-08-16T10:15:15.848Z,6.20
2022-08-16T10:17:45.402Z,6.10
2022-08-16T10:20:29.148Z,5.97
2022-08-16T10:23:03.702Z,5.67
2022-08-16T10:27:19.264Z,5.33
2022-08-16T10:28:28.688Z,5.73
2022-08-16T10:30:59.104Z,4.40
2022-08-16T10:33:29.681Z,4.87
2022-08-16T10:36:03.070Z,5.13
2022-08-16T10:38:33.187Z,5.27
2022-08-16T10:41:07.291Z,5.37
2022-08-16T10:43:36.163Z,4.57
2022-08-16T10:46:39.414Z,4.63
2022-08-16T10:48:53.372Z,5.57
2022-08-16T10:51:33.619Z,5.33
2022-08-16T10:54:28.523Z,5.27
2022-08-16T10:56:59.081Z,4.00
2022-08-16T10:59:38.173Z,4.60
2022-08-16T11:02:59.737Z,4.57
2022-08-16T11:05:06.773Z,4.83
2022-08-16T11:07:45.241Z,5.50
2022-08-16T11:13:58.097Z,5.50
2022-08-16T11:16:25.336Z,5.17
2022-08-16T11:19:05.420Z,4.90
2022-08-16T11:22:38.914Z,5.30
2022-08-16T11:24:41.871Z,5.23
2022-08-16T11:27:19.587Z,4.60
2022-08-16T11:29:53.084Z,4.93
2022-08-16T11:32:22.767Z,5.60
2022-08-16T11:35:16.289Z,5.40
2022-08-16T11:40:37.719Z,5.70
2022-08-16T11:43:06.856Z,5.07
2022-08-16T11:45:42.421Z,4.83
2022-08-16T11:48:11.392Z,5.50
2022-08-16T11:50:39.734Z,5.80
2022-08-16T11:53:08.588Z,4.30
2022-08-16T11:55:38.207Z,5.10
2022-08-16T11:58:07.306Z,4.90
2022-08-16T12:00:51.277Z,5.70
2022-08-16T12:03:34.831Z,5.30
2022-08-16T12:06:07.997Z,4.90
2022-08-16T12:08:39.009Z,4.63
2022-08-16T12:11:07.294Z,4.67
2022-08-16T12:13:35.665Z,5.40
2022-08-16T12:16:04.600Z,4.50
2022-08-16T12:18:34.363Z,5.40
2022-08-16T12:21:05.210Z,4.20
2022-08-16T12:23:37.876Z,4.53
2022-08-16T12:26:06.401Z,5.90
2022-08-16T12:28:53.922Z,4.87
2022-08-16T12:31:23.641Z,6.20
2022-08-16T12:33:54.333Z,4.90
2022-08-16T12:36:29.958Z,4.60
2022-08-16T12:38:58.807Z,5.27
2022-08-16T12:41:27.817Z,4.93
2022-08-16T12:43:56.874Z,5.40
2022-08-16T12:46:27.858Z,5.80
2022-08-16T12:48:59.624Z,5.77
2022-08-16T12:51:59.023Z,5.63
2022-08-16T12:54:20.238Z,4.73
2022-08-16T12:56:50.490Z,5.20
2022-08-16T12:59:23.674Z,5.20
2022-08-16T13:01:58.181Z,5.90
2022-08-16T13:04:33.282Z,5.73
2022-08-16T13:09:32.945Z,5.63
2022-08-16T13:12:19.115Z,4.53
2022-08-16T13:14:49.892Z,4.93
2022-08-16T13:17:20.875Z,5.27
2022-08-16T13:20:09.247Z,5.00
2022-08-16T13:25:08.945Z,5.37
2022-08-16T13:28:02.244Z,5.00
2022-08-16T13:30:37.779Z,4.50
2022-08-16T13:33:10.849Z,4.43
2022-08-16T13:35:43.890Z,5.50
2022-08-16T13:38:24.823Z,4.90
2022-08-16T13:40:56.140Z,5.07
2022-08-16T13:43:25.033Z,4.67
2022-08-16T13:45:55.427Z,5.33
2022-08-16T13:48:24.792Z,4.60
2022-08-16T13:50:56.234Z,5.10
2022-08-16T13:53:25.267Z,4.93
2022-08-16T13:55:58.469Z,5.00
2022-08-16T13:58:37.352Z,4.27
2022-08-16T14:01:15.810Z,4.10
2022-08-16T14:03:45.882Z,5.00
2022-08-16T14:06:18.837Z,4.70
2022-08-16T14:08:58.830Z,4.60
2022-08-16T14:11:34.297Z,4.70
2022-08-16T14:14:05.564Z,5.10
2022-08-16T14:16:35.205Z,5.10
2022-08-16T14:19:03.867Z,5.20
2022-08-16T14:21:35.163Z,4.50
2022-08-16T14:24:08.149Z,5.00
2022-08-16T14:26:52.733Z,4.47
2022-08-16T14:29:21.912Z,4.43
2022-08-16T14:31:54.180Z,4.27
2022-08-16T14:34:25.784Z,4.10
2022-08-16T14:36:56.593Z,4.63
2022-08-16T14:39:25.120Z,5.37
2022-08-16T14:41:55.766Z,4.33
2022-08-16T14:44:26.225Z,4.63
2022-08-16T14:46:55.392Z,4.23
2022-08-16T14:49:24.972Z,4.07
2022-08-16T14:51:53.393Z,5.00
2022-08-16T14:54:27.227Z,5.03
2022-08-16T14:56:58.368Z,4.80
2022-08-16T14:59:26.912Z,4.87
2022-08-16T15:01:59.468Z,5.20
2022-08-16T15:04:40.068Z,4.70
2022-08-16T15:07:16.679Z,4.67
2022-08-16T15:10:00.569Z,5.80
2022-08-16T15:12:34.050Z,5.30
2022-08-16T15:15:12.261Z,4.90
2022-08-16T15:17:42.437Z,4.93
2022-08-16T15:20:23.175Z,4.67
2022-08-16T15:22:54.894Z,4.40
2022-08-16T15:25:29.465Z,5.13
2022-08-16T15:27:58.554Z,4.60
2022-08-16T15:30:57.948Z,5.70
2022-08-16T15:33:17.382Z,3.90
2022-08-16T15:35:46.454Z,5.30
2022-08-16T15:38:57.785Z,6.37
2022-08-16T15:41:05.036Z,6.50
2022-08-16T15:43:39.720Z,5.80
2022-08-16T15:46:35.560Z,5.67
2022-08-16T15:49:13.304Z,5.80
2022-08-16T15:51:44.813Z,6.40
2022-08-16T15:54:20.843Z,5.83
2022-08-16T15:57:11.535Z,6.77
2022-08-16T15:59:48.606Z,6.20
2022-08-16T16:02:29.594Z,5.70
2022-08-16T16:05:00.942Z,6.13
2022-08-16T16:07:30.519Z,5.60
2022-08-16T16:09:59.316Z,5.13
2022-08-16T16:12:50.365Z,5.60
2022-08-16T16:15:20.172Z,5.67
2022-08-16T16:17:52.422Z,6.60
2022-08-16T16:20:21.737Z,6.00
2022-08-16T16:22:50.165Z,5.93
2022-08-16T16:25:18.897Z,5.70
2022-08-16T16:27:55.961Z,6.00
2022-08-16T16:30:33.213Z,6.67
2022-08-16T16:33:06.687Z,5.50
2022-08-16T16:35:36.233Z,6.10
2022-08-16T16:38:08.031Z,5.40
2022-08-16T16:40:46.068Z,5.10
2022-08-16T16:43:17.914Z,5.90
2022-08-16T16:45:46.227Z,5.13
2022-08-16T16:48:14.472Z,6.10
2022-08-16T16:50:45.768Z,4.90
2022-08-16T16:53:17.474Z,5.20
2022-08-16T16:55:47.691Z,5.80
2022-08-16T16:58:40.443Z,5.53
2022-08-16T17:01:11.331Z,5.20
2022-08-16T17:03:45.916Z,4.77
2022-08-16T17:06:22.573Z,6.07
2022-08-16T17:08:52.522Z,4.73
2022-08-16T17:11:22.437Z,6.00
2022-08-16T17:13:52.094Z,5.20
2022-08-16T17:16:20.446Z,5.43
2022-08-16T17:19:15.150Z,4.87
2022-08-16T17:21:39.125Z,5.03
2022-08-16T17:24:17.658Z,4.87
2022-08-16T17:26:48.861Z,6.30
2022-08-16T17:29:20.293Z,5.47
2022-08-16T17:31:49.489Z,6.40
2022-08-16T17:34:28.568Z,5.90
2022-08-16T17:36:58.909Z,5.57
2022-08-16T17:39:29.898Z,5.93
2022-08-16T17:41:58.721Z,5.80
2022-08-16T17:44:28.708Z,5.00
2022-08-16T17:46:56.954Z,5.00
2022-08-16T17:49:25.221Z,5.57
2022-08-16T17:51:53.492Z,6.67
2022-08-16T17:54:30.296Z,6.23
2022-08-16T17:57:00.914Z,5.77
2022-08-16T17:59:31.725Z,5.80
2022-08-16T18:02:44.241Z,6.20
2022-08-16T18:04:55.543Z,5.97
2022-08-16T18:07:23.896Z,6.13
2022-08-16T18:09:52.374Z,6.23
2022-08-16T18:12:54.518Z,6.47
2022-08-16T18:15:13.366Z,5.80
2022-08-16T18:17:41.913Z,6.13
2022-08-16T18:20:33.262Z,6.93
2022-08-16T18:23:05.003Z,6.10
2022-08-16T18:25:33.233Z,6.60
2022-08-16T18:28:01.505Z,7.17
2022-08-16T18:30:31.104Z,6.30
2022-08-16T18:32:59.642Z,7.40
2022-08-16T18:35:27.884Z,6.63
2022-08-16T18:37:56.130Z,6.27
2022-08-16T18:40:24.479Z,6.20
2022-08-16T18:42:57.226Z,6.40
2022-08-16T18:45:26.328Z,6.90
2022-08-16T18:48:05.546Z,6.50
2022-08-16T18:51:04.078Z,6.80
2022-08-16T18:53:24.083Z,6.30
2022-08-16T18:55:54.846Z,6.70
2022-08-16T18:58:23.437Z,6.83
2022-08-16T19:00:56.622Z,7.90
2022-08-16T19:03:27.944Z,6.77
2022-08-16T19:05:58.206Z,7.20
2022-08-16T19:08:26.516Z,6.20
2022-08-16T19:10:54.812Z,7.03
2022-08-16T19:13:25.589Z,6.60
2022-08-16T19:15:55.256Z,6.97
2022-08-16T19:18:23.642Z,6.90
2022-08-16T19:20:54.525Z,6.70
2022-08-16T19:23:23.802Z,7.03
2022-08-16T19:25:54.526Z,7.03
2022-08-16T19:28:58.459Z,7.97
2022-08-16T19:31:15.928Z,6.90
2022-08-16T19:33:45.409Z,7.90
2022-08-16T19:36:32.171Z,6.97
2022-08-16T19:39:04.766Z,7.17
2022-08-16T19:41:34.225Z,7.17
2022-08-16T19:44:02.534Z,5.63
2022-08-16T19:46:30.877Z,8.40
2022-08-16T19:48:59.146Z,9.10
2022-08-16T19:51:29.003Z,10.07
2022-08-16T19:53:57.251Z,9.73
2022-08-16T19:56:26.634Z,9.57
2022-08-16T20:01:46.539Z,8.33
2022-08-16T20:04:15.124Z,9.23
2022-08-16T20:06:44.901Z,9.10
2022-08-16T20:09:31.147Z,8.33
2022-08-16T20:11:59.585Z,10.77
2022-08-16T20:14:27.858Z,10.03
2022-08-16T20:16:57.232Z,8.80
2022-08-16T20:19:27.090Z,8.83
2022-08-16T20:21:57.327Z,9.47
2022-08-16T20:24:35.715Z,8.67
2022-08-16T20:27:05.017Z,8.70
2022-08-16T20:29:34.603Z,8.57
2022-08-16T20:32:02.890Z,8.30
2022-08-16T20:34:31.375Z,7.67
2022-08-16T20:37:01.001Z,9.20
2022-08-16T20:39:29.419Z,7.90
2022-08-16T20:41:57.796Z,8.03
2022-08-16T20:44:26.313Z,9.67
2022-08-16T20:46:54.612Z,10.90
2022-08-16T20:49:22.850Z,10.07
2022-08-16T20:51:55.941Z,9.33
2022-08-16T20:54:28.537Z,9.10
2022-08-16T20:56:56.858Z,10.07
2022-08-16T20:59:25.182Z,9.90
2022-08-16T21:01:53.517Z,8.60
2022-08-16T21:04:25.216Z,9.57
2022-08-16T21:06:54.988Z,9.30
2022-08-16T21:09:24.634Z,9.27
2022-08-16T21:11:55.426Z,8.97
2022-08-16T21:14:23.676Z,10.50
2022-08-16T21:16:52.046Z,8.93
2022-08-16T21:19:20.366Z,9.47
2022-08-16T21:21:49.023Z,8.70
2022-08-16T21:24:17.941Z,8.93
2022-08-16T21:26:55.032Z,9.53
2022-08-16T21:29:31.607Z,10.23
2022-08-16T21:32:12.134Z,9.17
2022-08-16T21:34:40.613Z,9.07
2022-08-16T21:37:08.964Z,9.30
2022-08-16T21:39:37.289Z,8.77
2022-08-16T21:42:08.825Z,8.93
2022-08-16T21:44:39.068Z,9.53
2022-08-16T21:47:08.261Z,10.00
2022-08-16T21:49:36.846Z,9.90
2022-08-16T21:52:05.470Z,10.30
2022-08-16T21:54:33.884Z,11.03
2022-08-16T21:57:02.118Z,9.90
2022-08-16T21:59:30.493Z,9.40
2022-08-16T22:02:00.612Z,9.93
2022-08-16T22:04:37.230Z,10.30
2022-08-16T22:07:07.013Z,10.53
2022-08-16T22:09:35.400Z,10.40
2022-08-16T22:12:03.672Z,10.00
2022-08-16T22:14:31.976Z,10.53
2022-08-16T22:17:01.609Z,10.30
2022-08-16T22:19:30.002Z,9.87
2022-08-16T22:21:58.262Z,10.03
2022-08-16T22:24:26.546Z,10.00
2022-08-16T22:26:54.978Z,10.87
2022-08-16T22:29:23.240Z,10.00
2022-08-16T22:31:51.829Z,10.90
2022-08-16T22:34:21.465Z,9.60
2022-08-16T22:36:51.036Z,11.30
2022-08-16T22:39:19.321Z,11.60
2022-08-16T22:41:49.938Z,10.53
2022-08-16T22:44:18.902Z,10.47
2022-08-16T22:46:47.146Z,10.03
2022-08-16T22:49:15.452Z,11.03
2022-08-16T22:51:45.382Z,10.63
2022-08-16T22:54:48.099Z,10.30
2022-08-16T22:57:01.943Z,9.60
2022-08-16T22:59:32.045Z,10.90
2022-08-16T23:02:00.520Z,9.93
2022-08-16T23:04:28.839Z,10.77
2022-08-16T23:06:58.465Z,10.57
2022-08-16T23:09:26.982Z,11.07
2022-08-16T23:11:55.288Z,9.80
2022-08-16T23:14:23.583Z,10.70
2022-08-16T23:16:51.812Z,9.80
2022-08-16T23:19:20.050Z,10.73
2022-08-16T23:21:49.327Z,9.77
2022-08-16T23:24:20.601Z,10.97
2022-08-16T23:26:49.823Z,9.60
2022-08-16T23:29:24.059Z,10.80
2022-08-16T23:31:55.746Z,10.00
2022-08-16T23:34:24.286Z,10.60
2022-08-16T23:36:52.865Z,12.03
2022-08-16T23:39:22.552Z,11.10
2022-08-16T23:41:51.907Z,11.43
2022-08-16T23:44:58.590Z,11.20
2022-08-16T23:47:09.509Z,11.50
2022-08-16T23:50:01.989Z,9.77
2022-08-16T23:52:54.855Z,10.57
2022-08-16T23:55:16.282Z,9.43
2022-08-16T23:57:45.442Z,10.80
